createdAt,value
2018-08-11T00:01:14.650Z,1.40
2018-08-11T00:03:55.731Z,1.70
2018-08-11T00:06:34.728Z,1.60
2018-08-11T00:09:16.490Z,1.47
2018-08-11T00:11:53.611Z,1.70
2018-08-11T00:14:31.763Z,1.73
2018-08-11T00:17:15.458Z,1.70
2018-08-11T00:19:52.655Z,1.80
2018-08-11T00:22:32.876Z,1.90
2018-08-11T00:25:17.024Z,1.70
2018-08-11T00:27:54.786Z,1.47
2018-08-11T00:30:37.613Z,1.70
2018-08-11T00:33:13.895Z,1.70
2018-08-11T00:35:55.071Z,1.70
2018-08-11T00:38:33.718Z,1.50
2018-08-11T00:41:13.924Z,1.63
2018-08-11T00:43:51.637Z,1.70
2018-08-11T00:46:36.441Z,1.57
2018-08-11T00:49:13.668Z,1.70
2018-08-11T00:51:58.756Z,1.90
2018-08-11T00:54:37.192Z,1.83
2018-08-11T00:57:26.522Z,1.60
2018-08-11T01:00:03.098Z,1.70
2018-08-11T01:02:45.085Z,1.70
2018-08-11T01:05:22.219Z,1.80
2018-08-11T01:08:06.274Z,1.90
2018-08-11T01:10:43.721Z,1.87
2018-08-11T01:13:20.808Z,1.90
2018-08-11T01:15:57.850Z,1.90
2018-08-11T01:18:34.959Z,1.90
2018-08-11T01:21:11.781Z,1.80
2018-08-11T01:23:48.326Z,1.93
2018-08-11T01:26:25.137Z,1.90
2018-08-11T01:29:02.150Z,2.43
2018-08-11T01:31:40.863Z,2.00
2018-08-11T01:34:19.055Z,2.10
2018-08-11T01:36:55.780Z,2.47
2018-08-11T01:39:32.486Z,2.30
2018-08-11T01:42:09.068Z,2.10
2018-08-11T01:44:46.272Z,2.67
2018-08-11T01:47:23.227Z,2.27
2018-08-11T01:50:00.854Z,2.10
2018-08-11T01:52:37.488Z,2.43
2018-08-11T01:55:20.406Z,2.43
2018-08-11T01:57:57.167Z,2.47
2018-08-11T02:00:37.504Z,2.80
2018-08-11T02:03:14.190Z,3.20
2018-08-11T02:05:51.997Z,2.80
2018-08-11T02:08:28.789Z,2.53
2018-08-11T02:11:06.806Z,2.50
2018-08-11T02:13:43.450Z,2.20
2018-08-11T02:16:20.318Z,2.30
2018-08-11T02:18:56.902Z,2.33
2018-08-11T02:21:33.929Z,2.47
2018-08-11T02:24:11.020Z,2.10
2018-08-11T02:26:48.060Z,1.83
2018-08-11T02:29:24.691Z,2.20
2018-08-11T02:32:15.437Z,2.10
2018-08-11T02:34:51.877Z,2.10
2018-08-11T02:37:30.102Z,2.40
2018-08-11T02:40:08.934Z,2.33
2018-08-11T02:42:52.119Z,2.80
2018-08-11T02:45:28.952Z,3.10
2018-08-11T02:48:06.269Z,2.50
2018-08-11T02:50:42.427Z,2.43
2018-08-11T02:53:19.153Z,2.40
2018-08-11T02:55:55.629Z,2.20
2018-08-11T02:58:32.705Z,2.30
2018-08-11T03:01:09.508Z,2.30
2018-08-11T03:03:48.915Z,2.20
2018-08-11T03:06:30.415Z,2.30
2018-08-11T03:09:15.360Z,2.13
2018-08-11T03:11:52.151Z,2.40
2018-08-11T03:14:31.407Z,2.20
2018-08-11T03:17:08.134Z,2.47
2018-08-11T03:19:45.090Z,2.53
2018-08-11T03:22:21.750Z,2.20
2018-08-11T03:25:00.211Z,2.30
2018-08-11T03:27:36.985Z,2.07
2018-08-11T03:30:17.564Z,2.60
2018-08-11T03:32:54.449Z,2.40
2018-08-11T03:35:35.453Z,3.13
2018-08-11T03:38:12.432Z,3.00
2018-08-11T03:40:51.438Z,3.13
2018-08-11T03:43:27.982Z,2.97
2018-08-11T03:46:04.739Z,2.60
2018-08-11T03:48:41.045Z,2.87
2018-08-11T03:51:18.221Z,2.80
2018-08-11T03:54:06.295Z,2.40
2018-08-11T03:56:44.422Z,2.40
2018-08-11T03:59:22.752Z,2.57
2018-08-11T04:02:04.182Z,2.60
2018-08-11T04:04:40.852Z,2.30
2018-08-11T04:07:22.451Z,2.80
2018-08-11T04:09:59.703Z,2.07
2018-08-11T04:12:44.477Z,2.30
2018-08-11T04:15:23.388Z,3.03
2018-08-11T04:18:02.436Z,2.43
2018-08-11T04:20:39.082Z,2.23
2018-08-11T04:23:21.372Z,2.37
2018-08-11T04:25:57.928Z,2.57
2018-08-11T04:28:40.662Z,2.43
2018-08-11T04:31:17.509Z,2.20
2018-08-11T04:33:54.571Z,2.20
2018-08-11T04:36:31.262Z,2.60
2018-08-11T04:39:10.196Z,2.67
2018-08-11T04:41:49.589Z,2.50
2018-08-11T04:44:27.797Z,2.47
2018-08-11T04:47:05.944Z,2.20
2018-08-11T04:49:43.644Z,2.63
2018-08-11T04:52:20.231Z,2.40
2018-08-11T04:54:57.415Z,2.70
2018-08-11T04:57:33.966Z,2.43
2018-08-11T05:00:12.803Z,2.33
2018-08-11T05:02:49.427Z,2.40
2018-08-11T05:05:33.861Z,2.47
2018-08-11T05:08:10.561Z,2.93
2018-08-11T05:10:48.891Z,3.30
2018-08-11T05:13:25.797Z,3.00
2018-08-11T05:16:28.013Z,2.80
2018-08-11T05:19:19.180Z,2.80
2018-08-11T05:21:59.266Z,3.20
2018-08-11T05:24:42.411Z,2.50
2018-08-11T05:27:20.844Z,2.60
2018-08-11T05:29:58.538Z,2.63
2018-08-11T05:32:35.832Z,2.67
2018-08-11T05:35:12.792Z,2.80
2018-08-11T05:37:50.670Z,2.67
2018-08-11T05:40:30.275Z,2.70
2018-08-11T05:45:55.577Z,2.70
2018-08-11T05:48:33.385Z,2.70
2018-08-11T05:51:12.663Z,3.00
2018-08-11T05:53:51.932Z,2.60
2018-08-11T05:56:33.856Z,2.87
2018-08-11T05:59:10.730Z,2.63
2018-08-11T06:01:47.557Z,3.00
2018-08-11T06:04:24.179Z,2.70
2018-08-11T06:07:01.060Z,2.57
2018-08-11T06:09:42.874Z,2.83
2018-08-11T06:12:19.559Z,2.73
2018-08-11T06:14:59.867Z,2.93
2018-08-11T06:17:37.307Z,2.90
2018-08-11T06:20:17.566Z,2.37
2018-08-11T06:22:54.611Z,2.10
2018-08-11T06:25:32.383Z,2.57
2018-08-11T06:28:09.209Z,2.27
2018-08-11T06:30:46.235Z,2.03
2018-08-11T06:33:23.121Z,2.30
2018-08-11T06:35:59.907Z,3.27
2018-08-11T06:38:37.226Z,3.03
2018-08-11T06:41:15.985Z,3.70
2018-08-11T06:43:53.070Z,2.60
2018-08-11T06:46:31.718Z,2.10
2018-08-11T06:49:09.791Z,2.30
2018-08-11T06:51:48.879Z,3.43
2018-08-11T06:54:25.686Z,2.40
2018-08-11T06:57:04.481Z,3.10
2018-08-11T06:59:46.642Z,5.43
2018-08-11T07:02:39.698Z,3.20
2018-08-11T07:05:18.750Z,2.50
2018-08-11T07:08:04.136Z,2.03
2018-08-11T07:10:42.727Z,2.10
2018-08-11T07:13:28.648Z,2.10
2018-08-11T07:16:12.463Z,2.23
2018-08-11T07:18:54.217Z,1.90
2018-08-11T07:21:35.339Z,1.90
2018-08-11T07:24:15.876Z,1.60
2018-08-11T07:26:52.805Z,1.80
2018-08-11T07:29:31.669Z,3.60
2018-08-11T07:32:12.688Z,3.20
2018-08-11T07:34:53.267Z,6.00
2018-08-11T07:37:30.486Z,2.10
2018-08-11T07:40:08.532Z,2.20
2018-08-11T07:42:46.267Z,1.47
2018-08-11T07:45:33.808Z,2.00
2018-08-11T07:48:10.601Z,1.50
2018-08-11T07:50:50.894Z,1.57
2018-08-11T07:53:27.946Z,1.83
2018-08-11T07:56:06.480Z,1.70
2018-08-11T07:58:43.189Z,2.27
2018-08-11T08:01:20.139Z,2.70
2018-08-11T08:03:56.965Z,1.67
2018-08-11T08:06:33.929Z,1.60
2018-08-11T08:09:15.673Z,1.73
2018-08-11T08:11:53.677Z,1.50
2018-08-11T08:14:37.667Z,1.90
2018-08-11T08:17:14.814Z,2.40
2018-08-11T08:19:51.645Z,1.90
2018-08-11T08:22:29.083Z,1.73
2018-08-11T08:25:06.104Z,1.40
2018-08-11T08:27:45.301Z,1.70
2018-08-11T08:30:22.055Z,1.60
2018-08-11T08:32:59.372Z,1.70
2018-08-11T08:35:35.857Z,1.50
2018-08-11T08:38:14.578Z,2.37
2018-08-11T08:40:52.546Z,1.80
2018-08-11T08:43:29.674Z,1.70
2018-08-11T08:46:06.415Z,1.63
2018-08-11T08:48:43.772Z,2.03
2018-08-11T08:51:20.376Z,1.80
2018-08-11T08:54:05.091Z,1.83
2018-08-11T08:56:41.610Z,1.77
2018-08-11T08:59:18.631Z,1.53
2018-08-11T09:01:56.418Z,1.70
2018-08-11T09:04:37.936Z,1.70
2018-08-11T09:07:22.022Z,1.70
2018-08-11T09:10:01.815Z,1.50
2018-08-11T09:12:38.234Z,1.50
2018-08-11T09:15:16.872Z,1.50
2018-08-11T09:17:53.570Z,1.80
2018-08-11T09:20:40.863Z,1.60
2018-08-11T09:23:22.830Z,1.60
2018-08-11T09:26:01.957Z,1.47
2018-08-11T09:28:40.304Z,2.10
2018-08-11T09:31:19.122Z,1.60
2018-08-11T09:33:55.995Z,1.43
2018-08-11T09:36:36.156Z,1.57
2018-08-11T09:39:13.403Z,1.80
2018-08-11T09:41:51.303Z,1.70
2018-08-11T09:44:27.953Z,1.50
2018-08-11T09:47:04.941Z,1.40
2018-08-11T09:49:48.300Z,1.60
2018-08-11T09:52:25.660Z,1.57
2018-08-11T09:55:07.688Z,1.70
2018-08-11T09:57:45.758Z,1.90
2018-08-11T10:00:27.782Z,1.90
2018-08-11T10:03:04.477Z,1.70
2018-08-11T10:05:42.348Z,1.70
2018-08-11T10:08:19.036Z,1.30
2018-08-11T10:11:06.224Z,1.97
2018-08-11T10:13:48.772Z,1.73
2018-08-11T10:16:25.725Z,1.60
2018-08-11T10:19:17.085Z,1.50
2018-08-11T10:21:56.465Z,1.53
2018-08-11T10:24:38.593Z,1.70
2018-08-11T10:27:15.081Z,1.70
2018-08-11T10:29:54.031Z,1.43
2018-08-11T10:32:30.519Z,1.60
2018-08-11T10:35:15.726Z,1.87
2018-08-11T10:37:53.252Z,2.00
2018-08-11T10:40:31.513Z,2.03
2018-08-11T10:43:09.720Z,1.87
2018-08-11T10:45:51.698Z,1.60
2018-08-11T10:48:28.562Z,1.90
2018-08-11T10:51:12.515Z,1.70
2018-08-11T10:53:49.052Z,1.90
2018-08-11T10:56:26.458Z,1.60
2018-08-11T11:01:56.004Z,2.00
2018-08-11T11:04:33.995Z,1.50
2018-08-11T11:07:11.449Z,1.83
2018-08-11T11:09:49.075Z,1.77
2018-08-11T11:12:32.603Z,1.67
2018-08-11T11:15:10.202Z,1.47
2018-08-11T11:17:48.459Z,1.70
2018-08-11T11:20:25.162Z,1.70
2018-08-11T11:23:02.474Z,1.70
2018-08-11T11:25:48.125Z,1.50
2018-08-11T11:28:24.936Z,2.00
2018-08-11T11:31:01.726Z,1.70
2018-08-11T11:33:41.056Z,1.87
2018-08-11T11:36:18.506Z,1.63
2018-08-11T11:38:56.270Z,1.73
2018-08-11T11:41:33.363Z,1.60
2018-08-11T11:44:12.462Z,1.73
2018-08-11T11:46:55.341Z,1.70
2018-08-11T11:49:37.206Z,1.70
2018-08-11T11:52:26.778Z,1.70
2018-08-11T11:55:04.572Z,1.63
2018-08-11T11:57:41.590Z,1.80
2018-08-11T12:00:18.994Z,1.80
2018-08-11T12:03:02.197Z,2.00
2018-08-11T12:05:41.380Z,4.53
2018-08-11T12:08:18.281Z,2.40
2018-08-11T12:10:55.104Z,1.93
2018-08-11T12:13:31.587Z,3.33
2018-08-11T12:16:13.107Z,1.90
2018-08-11T12:18:53.487Z,1.67
2018-08-11T12:21:31.528Z,1.73
2018-08-11T12:24:09.281Z,1.33
2018-08-11T12:26:56.683Z,1.30
2018-08-11T12:29:33.995Z,1.40
2018-08-11T12:32:16.365Z,1.83
2018-08-11T12:34:53.541Z,1.30
2018-08-11T12:37:32.738Z,1.70
2018-08-11T12:40:11.122Z,1.77
2018-08-11T12:42:50.558Z,1.80
2018-08-11T12:45:33.377Z,1.60
2018-08-11T12:48:10.967Z,1.60
2018-08-11T12:50:47.751Z,1.93
2018-08-11T12:53:25.466Z,1.53
2018-08-11T12:56:02.776Z,1.87
2018-08-11T12:58:40.307Z,1.47
2018-08-11T13:01:26.857Z,1.60
2018-08-11T13:04:09.177Z,1.70
2018-08-11T13:06:47.105Z,1.50
2018-08-11T13:09:26.965Z,1.60
2018-08-11T13:12:03.893Z,1.83
2018-08-11T13:14:43.274Z,1.47
2018-08-11T13:17:20.031Z,1.50
2018-08-11T13:19:56.964Z,1.40
2018-08-11T13:22:33.555Z,1.33
2018-08-11T13:25:11.512Z,1.60
2018-08-11T13:27:48.872Z,1.90
2018-08-11T13:30:31.267Z,1.60
2018-08-11T13:33:08.188Z,1.50
2018-08-11T13:35:48.936Z,1.60
2018-08-11T13:38:26.366Z,1.47
2018-08-11T13:41:05.519Z,1.53
2018-08-11T13:43:43.615Z,1.93
2018-08-11T13:46:22.312Z,1.70
2018-08-11T13:48:59.656Z,1.80
2018-08-11T13:51:36.967Z,1.67
2018-08-11T13:54:13.663Z,1.53
2018-08-11T13:56:52.324Z,1.57
2018-08-11T13:59:29.862Z,1.60
2018-08-11T14:02:06.821Z,1.57
2018-08-11T14:04:43.787Z,1.73
2018-08-11T14:07:25.153Z,1.40
2018-08-11T14:10:03.202Z,1.30
2018-08-11T14:12:41.266Z,1.50
2018-08-11T14:15:18.067Z,1.70
2018-08-11T14:17:55.982Z,1.43
2018-08-11T14:20:33.332Z,1.37
2018-08-11T14:23:10.774Z,1.60
2018-08-11T14:25:48.456Z,1.60
2018-08-11T14:28:28.932Z,1.60
2018-08-11T14:31:08.083Z,1.30
2018-08-11T14:33:45.794Z,1.57
2018-08-11T14:36:23.193Z,1.80
2018-08-11T14:39:01.083Z,1.80
2018-08-11T14:41:41.264Z,1.77
2018-08-11T14:44:21.389Z,1.60
2018-08-11T14:46:58.791Z,1.50
2018-08-11T14:52:34.548Z,1.50
2018-08-11T14:55:14.222Z,1.70
2018-08-11T14:57:53.030Z,1.37
2018-08-11T15:00:30.380Z,1.50
2018-08-11T15:03:07.394Z,1.40
2018-08-11T15:05:44.541Z,1.90
2018-08-11T15:08:21.864Z,1.63
2018-08-11T15:11:04.278Z,1.60
2018-08-11T15:13:41.464Z,1.30
2018-08-11T15:16:20.880Z,1.30
2018-08-11T15:18:57.850Z,2.33
2018-08-11T15:21:42.597Z,1.40
2018-08-11T15:24:21.505Z,1.40
2018-08-11T15:26:58.979Z,1.40
2018-08-11T15:29:36.299Z,1.30
2018-08-11T15:32:18.951Z,1.50
2018-08-11T15:34:55.545Z,1.60
2018-08-11T15:37:33.287Z,1.57
2018-08-11T15:40:10.229Z,1.40
2018-08-11T15:42:48.586Z,1.40
2018-08-11T15:45:26.101Z,1.40
2018-08-11T15:48:03.643Z,1.40
2018-08-11T15:50:40.887Z,1.30
2018-08-11T15:53:20.278Z,1.70
2018-08-11T15:55:58.419Z,2.07
2018-08-11T15:58:36.930Z,1.57
2018-08-11T16:01:14.880Z,1.40
2018-08-11T16:03:52.071Z,1.33
2018-08-11T16:06:29.285Z,1.70
2018-08-11T16:09:10.522Z,1.67
2018-08-11T16:11:48.816Z,1.43
2018-08-11T16:14:30.428Z,1.93
2018-08-11T16:17:12.047Z,1.50
2018-08-11T16:19:50.295Z,1.50
2018-08-11T16:22:28.500Z,1.20
2018-08-11T16:25:09.399Z,1.53
2018-08-11T16:27:47.705Z,1.70
2018-08-11T16:30:30.132Z,1.90
2018-08-11T16:33:10.584Z,1.77
2018-08-11T16:35:55.704Z,1.40
2018-08-11T18:15:35.114Z,1.70
2018-08-11T18:18:12.274Z,1.43
2018-08-11T18:20:51.348Z,1.67
2018-08-11T18:23:28.920Z,1.57
2018-08-11T18:26:07.564Z,1.60
2018-08-11T18:28:45.799Z,1.70
2018-08-11T18:31:23.708Z,2.33
2018-08-11T18:34:18.806Z,2.10
2018-08-11T18:36:56.055Z,2.30
2018-08-11T18:39:32.538Z,2.30
2018-08-11T18:42:09.399Z,2.37
2018-08-11T18:44:47.559Z,2.20
2018-08-11T18:47:28.203Z,2.33
2018-08-11T18:50:05.404Z,1.80
2018-08-11T18:52:44.176Z,2.10
2018-08-11T18:55:25.170Z,2.50
2018-08-11T18:58:04.386Z,3.00
2018-08-11T19:00:41.111Z,3.20
2018-08-11T19:03:18.291Z,2.70
2018-08-11T19:05:55.737Z,2.90
2018-08-11T19:08:32.857Z,2.30
2018-08-11T19:11:12.628Z,1.93
2018-08-11T19:13:55.186Z,1.90
2018-08-11T19:16:32.329Z,1.70
2018-08-11T19:19:11.728Z,2.07
2018-08-11T19:21:52.750Z,2.10
2018-08-11T19:24:35.917Z,1.70
2018-08-11T19:27:13.704Z,1.90
2018-08-11T19:29:52.004Z,2.30
2018-08-11T19:32:29.413Z,2.80
2018-08-11T19:35:07.583Z,2.10
2018-08-11T19:37:45.691Z,1.93
2018-08-11T19:40:30.359Z,1.80
2018-08-11T19:43:07.480Z,2.10
2018-08-11T19:45:47.224Z,2.07
2018-08-11T19:48:27.922Z,1.60
2018-08-11T19:51:09.380Z,1.90
2018-08-11T19:53:50.330Z,2.03
2018-08-11T19:56:31.672Z,2.00
2018-08-11T19:59:12.574Z,1.97
2018-08-11T20:01:49.717Z,1.67
2018-08-11T20:04:26.371Z,1.93
2018-08-11T20:07:04.545Z,1.90
2018-08-11T20:09:45.255Z,1.60
2018-08-11T20:12:22.618Z,2.37
2018-08-11T20:15:00.469Z,2.50
2018-08-11T20:17:42.027Z,2.70
2018-08-11T20:20:20.280Z,2.13
2018-08-11T20:23:01.842Z,2.17
2018-08-11T20:25:41.011Z,2.00
2018-08-11T20:28:21.460Z,2.10
2018-08-11T20:31:00.118Z,2.20
2018-08-11T20:33:40.195Z,2.30
2018-08-11T20:36:16.814Z,2.10
2018-08-11T20:38:54.486Z,2.00
2018-08-11T20:41:31.803Z,2.20
2018-08-11T20:44:14.297Z,3.33
2018-08-11T20:46:51.326Z,3.53
2018-08-11T20:49:27.810Z,4.50
2018-08-11T20:52:11.840Z,4.23
2018-08-11T20:54:51.739Z,4.00
2018-08-11T20:57:28.997Z,4.23
2018-08-11T21:00:09.789Z,3.93
2018-08-11T21:02:46.499Z,4.07
2018-08-11T21:08:12.649Z,3.80
2018-08-11T21:10:51.794Z,3.83
2018-08-11T21:13:28.909Z,3.90
2018-08-11T21:16:07.926Z,3.60
2018-08-11T21:18:45.109Z,3.00
2018-08-11T21:21:26.564Z,2.40
2018-08-11T21:24:04.580Z,2.40
2018-08-11T21:26:41.747Z,2.60
2018-08-11T21:29:18.227Z,2.50
2018-08-11T21:31:55.295Z,2.93
2018-08-11T21:34:32.609Z,2.60
2018-08-11T21:37:14.267Z,3.13
2018-08-11T21:39:51.794Z,3.40
2018-08-11T21:42:29.636Z,2.70
2018-08-11T21:45:07.097Z,2.60
2018-08-11T21:47:44.543Z,2.60
2018-08-11T21:50:21.217Z,2.60
2018-08-11T21:53:08.801Z,2.40
2018-08-11T21:55:48.612Z,3.43
2018-08-11T21:58:29.419Z,2.90
2018-08-11T22:01:11.829Z,3.90
2018-08-11T22:03:52.280Z,2.90
2018-08-11T22:06:29.418Z,3.20
2018-08-11T22:11:54.322Z,3.17
2018-08-11T22:14:32.931Z,3.10
2018-08-11T22:17:10.530Z,2.70
2018-08-11T22:19:49.210Z,2.73
2018-08-11T22:22:25.997Z,3.33
2018-08-11T22:25:16.871Z,3.03
2018-08-11T22:27:54.584Z,3.83
2018-08-11T22:30:36.704Z,2.90
2018-08-11T22:33:13.793Z,2.70
2018-08-11T22:35:51.170Z,2.87
2018-08-11T22:38:32.015Z,2.80
2018-08-11T22:41:13.275Z,2.97
2018-08-11T22:43:50.338Z,3.07
2018-08-11T22:46:37.290Z,3.10
2018-08-11T22:49:17.278Z,3.20
2018-08-11T22:51:55.464Z,6.03
2018-08-11T22:54:34.151Z,3.30
2018-08-11T22:57:11.522Z,3.10
2018-08-11T22:59:48.478Z,2.50
2018-08-11T23:02:26.899Z,2.80
2018-08-11T23:05:04.595Z,2.73
2018-08-11T23:07:46.598Z,2.40
2018-08-11T23:10:24.169Z,2.40
2018-08-11T23:13:06.841Z,2.63
2018-08-11T23:15:44.387Z,3.07
2018-08-11T23:18:26.676Z,2.97
2018-08-11T23:21:03.901Z,2.60
2018-08-11T23:23:41.006Z,3.50
2018-08-11T23:26:22.055Z,2.33
2018-08-11T23:29:01.919Z,2.60
2018-08-11T23:31:41.035Z,2.30
2018-08-11T23:34:20.030Z,2.80
2018-08-11T23:36:59.082Z,2.70
2018-08-11T23:39:37.165Z,2.60
2018-08-11T23:42:13.767Z,3.20
2018-08-11T23:44:55.960Z,3.00
2018-08-11T23:47:32.672Z,2.87
2018-08-11T23:50:10.943Z,2.77
2018-08-11T23:52:47.558Z,2.60
2018-08-11T23:55:25.811Z,2.37
2018-08-11T23:58:02.983Z,2.30
